Observations for CARDIFF-WALES ARPT, United Kingdom (EGFF)

EGFF 192020Z AUTO 31006KT 9999 NCD 09/07 Q1004  
EGFF 191950Z AUTO 32005KT 9999 NCD 09/07 Q1004  
EGFF 191920Z AUTO 32006KT 9999 SCT022 08/06 Q1003   
EGFF 191850Z AUTO 29006KT 9999 NCD 09/07 Q1003  
EGFF 191820Z AUTO 29007KT 9999 FEW023 10/07 Q1003   
EGFF 191750Z AUTO 28007KT 9999 NCD 10/07 Q1003  
EGFF 191720Z AUTO 28007KT 9999 FEW049 11/06 Q1003   
EGFF 191650Z 28006KT 9999 FEW039 11/07 Q1003
EGFF 191620Z 28006KT 9999 FEW039 12/07 Q1002
EGFF 191550Z 29010KT 9999 FEW029 SCT049 13/07 Q1002 
EGFF 191520Z 27008KT 9999 FEW014 FEW024CB SCT025 13/08 Q1002
EGFF 191450Z 28006KT 9999 FEW014 SCT024CB 13/08 Q1002   
EGFF 191420Z 32007KT 9999 FEW017 FEW024CB 12/07 Q1002   
EGFF 191350Z 29010KT 9999 FEW017 FEW020CB 13/08 Q1001   
EGFF 191320Z 29012KT 9999 FEW027CB 14/08 Q1001  
EGFF 191250Z 29010KT 9999 FEW027CB 13/08 Q1001  
EGFF 191220Z AUTO 28010KT 9999 FEW027 13/08 Q1001   
EGFF 191150Z AUTO 29009KT 9999 FEW044 13/08 Q1001   
EGFF 191120Z 30011KT 9999 FEW044 13/08 Q1001
EGFF 191050Z 29010KT 9999 FEW022CB 13/08 Q1000  
EGFF 191020Z 30009KT 9999 FEW022CB 12/09 Q1000  
EGFF 190950Z 29008KT 9999 FEW020CB 10/09 Q1000  
EGFF 190920Z 30009KT 9999 FEW015TCU FEW020CB 10/08 Q1000
EGFF 190850Z 29007KT 9999 FEW017TCU FEW020CB 11/09 Q0999
EGFF 190820Z 32007KT 9999 FEW013TCU FEW015CB 10/09 Q0999
EGFF 190750Z 29007KT 9999 FEW013TCU FEW015CB 09/08 Q0999
EGFF 190720Z AUTO 30007KT 9999 //////CB 09/08 Q0998 
EGFF 190650Z AUTO 31005KT 9999 FEW038 09/08 Q0998   
EGFF 190620Z AUTO 30004KT 9999 SCT021/// OVC047/// //////CB 09/09 Q0998 
EGFF 190550Z AUTO 32003KT 9999 FEW046 09/08 Q0998   
EGFF 190520Z AUTO 29004KT 9999 -RA BKN037/// //////TCU 10/09 Q0998  
EGFF 190450Z AUTO 26004KT 230V300 9999 -RA SCT022/// BKN033/// OVC047/// //////CB 10/09 Q0998   
EGFF 190420Z AUTO 26004KT 9999 FEW036/// BKN044/// //////CB 09/09 Q0997 
EGFF 190350Z AUTO 27004KT 9999 -RA FEW037/// BKN045/// //////CB 09/08 Q0997 
EGFF 190320Z AUTO 29005KT 9999 -RA FEW019/// BKN031/// //////CB 09/08 Q0997 
EGFF 190250Z AUTO 26006KT 9999 -RA BKN022/// BKN031/// //////CB 09/08 Q0997 RERA
EGFF 190220Z AUTO 30011KT 9999 -RA SCT020/// BKN040/// //////CB 10/08 Q0997 
EGFF 190150Z AUTO 25014KT 9999 -RA FEW015/// SCT027/// BKN046/// //////CB 11/09 Q0996   
EGFF 190120Z AUTO 24012KT 9999 //////CB 11/09 Q0996 
EGFF 190050Z AUTO 25013KT 9999 -RA FEW021/// //////CB 11/09 Q0997   
EGFF 190020Z AUTO 25014G24KT 9999 -RA SCT019/// BKN047/// //////TCU 11/09 Q0997 
EGFF 182350Z AUTO 23012KT 9999 -RA BKN016/// BKN023/// //////CB 11/09 Q0997 
EGFF 182320Z AUTO 23011KT 190V260 9999 FEW024/// SCT048/// //////CB 11/09 Q0997 
EGFF 182250Z AUTO 22012KT 9999 FEW015/// //////CB 11/09 Q0997   
EGFF 182220Z AUTO 24013KT 9999 FEW023/// SCT046/// //////CB 11/09 Q0997 
EGFF 182150Z AUTO 23013KT 190V260 9999 //////CB 11/09 Q0997 
EGFF 182120Z AUTO 23013KT 9999 //////CB 11/09 Q0997 
EGFF 182050Z AUTO 23015KT 9999 -RA BKN015/// BKN049/// //////CB 11/09 Q0997 RERA
EGFF 182020Z AUTO 23013KT 9999 BKN023/// BKN038/// //////CB 11/09 Q0997 
EGFF 181950Z 23015KT 9999 6000W -SHRA SCT016CB BKN022 OVC043 11/09 Q0997 RESHRA